Time;durP1;ratioP1;P1;durP2;ratioP2;P2;SDS_P1;SDS_P2;PMS_P1;PMS_P2;Temp;Humidity;BMP_temperature;BMP_pressure;BME280_temperature;BME280_humidity;BME280_pressure;Samples;Min_cycle;Max_cycle;Signal;HPM_P1;HPM_P2
2022/12/22 03:25:53;;;;;;;84.23;61.33;;;;;;;-0.03;63.98;95094.06;5020473;28;20243;-67
2022/12/22 03:28:25;;;;;;;91.17;63.33;;;;;;;-0.12;64.43;95093.72;5037120;28;20213;-67
2022/12/22 03:30:53;;;;;;;85.30;62.33;;;;;;;-0.12;64.63;95096.31;5042649;28;20225;-67
2022/12/22 03:33:19;;;;;;;83.20;60.93;;;;;;;-0.06;64.21;95089.03;5031952;28;20588;-67
2022/12/22 03:35:45;;;;;;;84.27;62.17;;;;;;;-0.09;64.34;95081.47;5030834;28;20190;-67
2022/12/22 03:38:10;;;;;;;77.90;57.60;;;;;;;0.01;63.89;95086.94;5044519;28;20300;-67
2022/12/22 03:40:35;;;;;;;80.67;57.00;;;;;;;-0.13;63.99;95085.16;5041293;28;20218;-67
2022/12/22 03:48:29;;;;;;;79.30;57.53;;;;;;;-0.30;64.64;95095.56;5040659;28;20228;-68
2022/12/22 03:50:54;;;;;;;80.97;58.70;;;;;;;-0.32;65.00;95105.16;5045442;28;20178;-67
2022/12/22 03:53:19;;;;;;;85.57;58.77;;;;;;;-0.31;65.11;95104.25;5048637;28;20182;-67
2022/12/22 03:55:45;;;;;;;81.03;57.23;;;;;;;-0.30;64.68;95093.81;5051968;28;20281;-67
2022/12/22 03:58:10;;;;;;;77.03;56.63;;;;;;;-0.19;64.33;95100.16;5044274;28;20235;-67
2022/12/22 04:00:36;;;;;;;73.83;51.77;;;;;;;-0.17;64.28;95093.16;5037149;28;20293;-67
2022/12/22 04:03:01;;;;;;;75.23;49.47;;;;;;;-0.18;63.77;95089.72;5045290;28;20180;-67
2022/12/22 04:05:26;;;;;;;76.37;49.53;;;;;;;-0.18;63.56;95092.31;5043229;28;20248;-67
2022/12/22 04:07:52;;;;;;;62.87;47.07;;;;;;;-0.28;63.82;95091.97;5045607;28;20225;-66
2022/12/22 04:13:01;;;;;;;67.17;45.10;;;;;;;-0.35;64.23;95094.97;5037996;28;20260;-67
2022/12/22 04:15:30;;;;;;;68.93;45.73;;;;;;;-0.36;63.90;95090.75;5043331;28;20225;-67
2022/12/22 04:17:57;;;;;;;60.63;45.13;;;;;;;-0.34;64.04;95089.75;5048791;28;20281;-67
2022/12/22 04:20:25;;;;;;;59.23;44.33;;;;;;;-0.34;64.08;95087.16;5047188;28;20197;-67
2022/12/22 04:22:51;;;;;;;60.77;44.27;;;;;;;-0.33;64.10;95082.81;5049566;28;20259;-67
2022/12/22 04:25:17;;;;;;;62.13;44.33;;;;;;;-0.25;63.98;95086.63;5047441;28;20250;-67
2022/12/22 04:27:42;;;;;;;61.53;46.20;;;;;;;-0.27;63.99;95082.47;5029467;28;20275;-67
2022/12/22 04:30:08;;;;;;;67.00;47.80;;;;;;;-0.29;64.05;95086.91;5035367;28;20189;-67
2022/12/22 04:32:34;;;;;;;65.60;48.47;;;;;;;-0.30;64.35;95082.66;5032406;28;20230;-67
2022/12/22 04:34:59;;;;;;;59.27;46.07;;;;;;;-0.29;63.62;95084.34;5043141;28;20229;-67
2022/12/22 04:37:25;;;;;;;65.70;47.37;;;;;;;-0.32;63.84;95089.66;5043021;28;20292;-67
2022/12/22 04:39:50;;;;;;;65.77;47.97;;;;;;;-0.42;64.09;95091.91;5038484;28;20305;-67
2022/12/22 04:42:15;;;;;;;65.83;47.00;;;;;;;-0.42;64.13;95083.34;5041173;28;20249;-67
2022/12/22 04:44:41;;;;;;;64.13;45.67;;;;;;;-0.53;64.60;95076.19;5045224;28;20189;-67
2022/12/22 04:47:06;;;;;;;61.23;46.77;;;;;;;-0.54;64.70;95082.25;5038490;28;20234;-67
2022/12/22 04:49:32;;;;;;;65.33;47.07;;;;;;;-0.47;64.05;95084.41;5034723;28;20232;-67
2022/12/22 04:51:57;;;;;;;60.63;45.37;;;;;;;-0.48;63.82;95084.50;5046050;28;20224;-67
2022/12/22 04:54:23;;;;;;;62.03;48.17;;;;;;;-0.57;64.33;95080.66;5036357;28;20221;-67
2022/12/22 04:56:49;;;;;;;71.37;50.60;;;;;;;-0.43;64.01;95087.66;5044567;28;20212;-67
2022/12/22 04:59:15;;;;;;;66.57;50.20;;;;;;;-0.43;64.01;95081.66;5028850;28;20245;-67
2022/12/22 05:01:40;;;;;;;66.07;48.87;;;;;;;-0.35;63.68;95084.66;5019503;28;20290;-67
2022/12/22 05:04:06;;;;;;;73.97;53.63;;;;;;;-0.42;64.14;95073.00;5021269;28;20230;-67
2022/12/22 05:06:31;;;;;;;73.67;52.60;;;;;;;-0.54;64.32;95075.31;5022389;28;20230;-67
2022/12/22 05:08:57;;;;;;;82.83;59.10;;;;;;;-0.55;64.41;95078.00;5022064;28;20202;-67
2022/12/22 05:11:22;;;;;;;90.57;64.30;;;;;;;-0.63;64.76;95081.00;5014131;28;20270;-67
2022/12/22 05:13:47;;;;;;;93.77;70.47;;;;;;;-0.58;65.20;95081.59;5020679;28;20226;-67
2022/12/22 05:16:15;;;;;;;97.63;73.50;;;;;;;-0.51;64.97;95085.50;5034429;28;20218;-67
2022/12/22 05:18:42;;;;;;;95.23;71.70;;;;;;;-0.48;65.24;95085.34;5044277;28;20226;-66
2022/12/22 05:21:16;;;;;;;93.80;68.27;;;;;;;-0.50;65.02;95092.34;5039381;28;20220;-67
2022/12/22 05:23:42;;;;;;;95.73;66.77;;;;;;;-0.41;65.43;95090.16;5046873;28;20220;-67
2022/12/22 05:26:08;;;;;;;98.37;69.17;;;;;;;-0.42;64.99;95089.34;5038613;28;20230;-67
2022/12/22 05:28:34;;;;;;;96.40;68.63;;;;;;;-0.48;65.57;95095.66;5047081;28;20218;-67
2022/12/22 05:31:20;;;;;;;96.93;71.43;;;;;;;-0.46;65.21;95098.16;4998519;28;1161354;-67
2022/12/22 05:33:46;;;;;;;97.87;67.53;;;;;;;-0.58;65.70;95109.16;5029682;28;20214;-67
2022/12/22 05:36:12;;;;;;;98.73;71.70;;;;;;;-0.59;66.06;95092.81;5039452;28;20186;-67
2022/12/22 05:38:37;;;;;;;92.37;65.13;;;;;;;-0.56;65.58;95094.41;5045854;28;20198;-67
2022/12/22 05:41:03;;;;;;;91.23;67.37;;;;;;;-0.55;65.20;95089.16;5045766;28;20234;-67
2022/12/22 05:43:28;;;;;;;89.67;64.80;;;;;;;-0.55;66.02;95098.66;5014759;28;20223;-67
2022/12/22 05:45:54;;;;;;;91.73;65.23;;;;;;;-0.63;66.07;95093.91;5045676;28;20221;-66
2022/12/22 05:48:19;;;;;;;85.47;65.47;;;;;;;-0.78;66.28;95094.72;5035635;28;20224;-67
2022/12/22 05:50:45;;;;;;;86.67;64.17;;;;;;;-0.63;65.85;95093.91;5041822;28;20239;-67
2022/12/22 05:53:11;;;;;;;83.17;61.73;;;;;;;-0.64;65.76;95088.81;5039583;28;20225;-67
2022/12/22 05:55:36;;;;;;;88.97;63.90;;;;;;;-0.69;65.78;95092.50;5039761;28;20218;-67
2022/12/22 05:58:02;;;;;;;85.50;64.07;;;;;;;-0.60;65.68;95096.31;5040274;28;20228;-66
2022/12/22 06:00:29;;;;;;;86.83;65.03;;;;;;;-0.68;65.94;95096.72;5035153;28;20214;-66
2022/12/22 06:02:55;;;;;;;89.37;65.60;;;;;;;-0.51;65.50;95087.22;5020326;28;20273;-66
2022/12/22 06:05:20;;;;;;;91.67;65.17;;;;;;;-0.42;65.30;95099.66;5037923;28;20187;-66
2022/12/22 06:07:46;;;;;;;84.07;63.47;;;;;;;-0.40;65.40;95096.97;5039689;28;20225;-66
2022/12/22 06:10:12;;;;;;;83.17;61.87;;;;;;;-0.38;65.09;95097.75;5045447;28;20288;-66
2022/12/22 06:12:38;;;;;;;91.50;65.90;;;;;;;-0.38;65.10;95095.16;5043518;28;20279;-66
2022/12/22 06:15:04;;;;;;;87.00;63.80;;;;;;;-0.43;65.31;95090.22;5042271;28;20253;-66
2022/12/22 06:17:30;;;;;;;86.80;62.50;;;;;;;-0.37;65.19;95096.84;5046075;28;20189;-66
2022/12/22 06:19:55;;;;;;;79.60;61.77;;;;;;;-0.29;65.00;95090.34;5048673;28;20279;-66
2022/12/22 06:22:21;;;;;;;85.73;62.07;;;;;;;-0.37;65.09;95089.91;5029380;28;20317;-66
2022/12/22 06:24:46;;;;;;;83.37;63.10;;;;;;;-0.40;65.21;95091.81;5023717;28;20225;-67
2022/12/22 06:27:12;;;;;;;85.40;61.87;;;;;;;-0.39;65.77;95099.50;5029834;28;20232;-66
2022/12/22 06:29:37;;;;;;;85.63;62.53;;;;;;;-0.24;65.16;95090.91;5050169;28;20186;-66
2022/12/22 06:32:03;;;;;;;86.70;62.50;;;;;;;-0.27;64.83;95098.84;5027835;28;20262;-66
2022/12/22 06:34:28;;;;;;;86.47;64.40;;;;;;;-0.30;64.79;95104.16;5031159;28;20218;-66
2022/12/22 06:36:54;;;;;;;95.53;67.47;;;;;;;-0.29;65.12;95108.41;5034850;28;20213;-66
2022/12/22 06:39:20;;;;;;;89.73;65.97;;;;;;;-0.14;64.70;95111.91;5041042;28;20256;-66
2022/12/22 06:44:30;;;;;;;86.40;63.33;;;;;;;-0.17;64.71;95099.16;5040264;28;20221;-66
2022/12/22 06:46:55;;;;;;;90.33;64.77;;;;;;;-0.20;64.79;95109.66;5039266;28;20226;-66
2022/12/22 06:49:21;;;;;;;82.17;62.00;;;;;;;0.01;64.40;95109.41;5040057;28;20218;-66
2022/12/22 06:51:46;;;;;;;87.93;61.63;;;;;;;0.01;64.42;95109.41;5022068;28;20222;-66
2022/12/22 06:54:12;;;;;;;85.63;62.73;;;;;;;0.08;64.12;95119.31;5023248;28;20229;-66
2022/12/22 06:56:37;;;;;;;88.30;60.43;;;;;;;0.10;64.34;95108.88;5022228;28;20183;-66
2022/12/22 06:59:03;;;;;;;87.87;59.47;;;;;;;0.07;64.26;95117.63;5020096;28;20222;-66
2022/12/22 07:01:29;;;;;;;81.80;62.40;;;;;;;0.12;64.17;95112.19;5023104;28;20227;-66
2022/12/22 07:03:54;;;;;;;86.03;60.10;;;;;;;0.14;64.08;95111.19;5018728;28;20215;-66
2022/12/22 07:06:19;;;;;;;81.47;59.43;;;;;;;0.40;63.52;95114.03;5022973;28;20236;-66
2022/12/22 07:08:46;;;;;;;72.87;54.03;;;;;;;0.44;63.49;95113.78;5053860;28;20244;-66
2022/12/22 07:11:12;;;;;;;72.13;53.43;;;;;;;0.53;63.27;95117.59;5028805;28;20222;-66
2022/12/22 07:13:38;;;;;;;76.17;54.70;;;;;;;0.58;63.30;95122.50;5034982;28;20301;-67
2022/12/22 07:16:05;;;;;;;81.20;59.97;;;;;;;0.38;63.50;95116.72;5044145;28;20310;-66
2022/12/22 07:18:33;;;;;;;83.93;60.80;;;;;;;0.54;62.61;95123.63;5034010;28;20232;-66
2022/12/22 07:21:00;;;;;;;80.53;58.63;;;;;;;0.55;62.89;95120.94;5041451;28;20253;-66
2022/12/22 07:23:25;;;;;;;95.47;65.97;;;;;;;0.52;63.17;95126.28;5048491;28;20194;-66
2022/12/22 07:25:51;;;;;;;81.47;62.53;;;;;;;0.63;63.01;95117.91;5041214;28;20221;-66
2022/12/22 07:28:17;;;;;;;74.53;57.33;;;;;;;0.74;62.73;95119.84;5044420;28;20232;-66
2022/12/22 07:30:42;;;;;;;76.70;55.77;;;;;;;0.66;62.82;95117.72;5043787;28;20237;-66
2022/12/22 07:33:08;;;;;;;76.03;55.37;;;;;;;0.63;63.09;95116.13;5049786;28;20196;-66
2022/12/22 07:35:33;;;;;;;76.73;53.00;;;;;;;0.82;62.49;95125.41;5041127;28;20190;-66
2022/12/22 07:38:00;;;;;;;75.37;54.13;;;;;;;0.91;62.28;95116.25;5039304;28;20222;-66
2022/12/22 07:40:25;;;;;;;80.67;56.93;;;;;;;0.85;62.38;95109.69;5048895;28;20272;-66
2022/12/22 07:42:58;;;;;;;78.07;53.93;;;;;;;0.98;62.07;95115.00;5045572;28;20233;-66
2022/12/22 07:45:23;;;;;;;81.50;55.53;;;;;;;0.94;62.21;95118.69;5039253;28;20221;-66
2022/12/22 07:47:50;;;;;;;68.47;51.47;;;;;;;1.00;61.79;95107.97;5040362;28;20197;-66
2022/12/22 07:50:31;;;;;;;64.07;49.60;;;;;;;1.21;61.06;95119.63;5047816;28;20217;-66
2022/12/22 07:53:02;;;;;;;70.30;50.77;;;;;;;1.35;60.89;95112.78;5029685;28;20228;-66
2022/12/22 07:55:30;;;;;;;64.17;48.53;;;;;;;1.30;60.99;95119.06;5030748;28;20285;-66
2022/12/22 07:57:56;;;;;;;71.83;53.53;;;;;;;1.39;61.13;95109.91;5027470;28;20226;-66
2022/12/22 08:00:22;;;;;;;74.97;56.03;;;;;;;1.40;61.36;95111.56;5040764;28;20229;-66
2022/12/22 08:02:53;;;;;;;78.70;53.97;;;;;;;1.50;61.08;95112.66;5040339;28;20220;-67
2022/12/22 08:05:19;;;;;;;66.43;53.07;;;;;;;1.69;60.58;95109.78;5027194;28;20225;-66
2022/12/22 08:07:46;;;;;;;70.57;51.63;;;;;;;1.70;59.89;95102.81;5026634;28;20221;-66
2022/12/22 08:10:12;;;;;;;72.67;51.47;;;;;;;1.79;60.23;95104.81;5023963;28;20218;-66
2022/12/22 08:12:37;;;;;;;53.80;41.00;;;;;;;1.86;59.78;95098.31;5044618;28;20306;-67
2022/12/22 08:15:04;;;;;;;61.93;44.13;;;;;;;1.91;59.29;95098.03;5028603;28;20186;-67
2022/12/22 08:17:29;;;;;;;68.63;44.13;;;;;;;2.01;58.99;95100.91;5031141;28;20186;-67
2022/12/22 08:19:55;;;;;;;65.47;45.33;;;;;;;2.04;59.17;95103.28;5016112;28;20283;-67
2022/12/22 08:22:24;;;;;;;64.17;45.70;;;;;;;2.09;58.58;95099.47;5026297;28;20582;-66
2022/12/22 08:24:51;;;;;;;59.60;46.17;;;;;;;2.17;58.82;95102.41;5027518;28;20245;-67
2022/12/22 08:27:20;;;;;;;61.30;42.97;;;;;;;2.13;58.25;95095.72;5028210;28;20355;-67
2022/12/22 08:29:49;;;;;;;55.87;41.53;;;;;;;2.11;58.51;95095.03;5041346;28;20291;-67
2022/12/22 08:32:15;;;;;;;56.20;44.50;;;;;;;2.18;58.30;95092.84;5037885;28;20237;-66
2022/12/22 08:34:41;;;;;;;55.57;41.17;;;;;;;2.10;59.18;95090.75;5028435;28;20222;-66
2022/12/22 08:37:13;;;;;;;47.93;36.30;;;;;;;2.42;57.19;95096.44;5029880;28;20223;-66
2022/12/22 08:39:40;;;;;;;48.40;36.73;;;;;;;2.19;57.69;95100.53;5034216;28;20232;-67
2022/12/22 08:42:10;;;;;;;48.10;36.23;;;;;;;2.06;58.22;95098.81;5037351;28;20201;-66
2022/12/22 08:44:39;;;;;;;51.20;36.80;;;;;;;2.19;58.39;95095.34;5042715;28;20209;-66
2022/12/22 08:47:05;;;;;;;50.47;38.23;;;;;;;2.36;58.32;95101.22;5046119;28;20251;-66
2022/12/22 08:49:31;;;;;;;57.07;40.10;;;;;;;2.45;57.38;95087.63;5046861;28;20224;-66
2022/12/22 08:51:57;;;;;;;54.20;37.50;;;;;;;2.61;57.09;95088.28;5025128;28;20227;-66
2022/12/22 08:54:22;;;;;;;51.10;37.10;;;;;;;2.63;56.41;95083.00;5025675;28;20224;-66
2022/12/22 08:56:48;;;;;;;47.00;36.00;;;;;;;2.78;56.23;95075.94;5030076;28;20269;-67
2022/12/22 08:59:14;;;;;;;49.97;36.80;;;;;;;2.91;56.16;95079.34;5033025;28;20245;-67
2022/12/22 09:01:42;;;;;;;50.27;37.57;;;;;;;3.03;56.36;95064.72;5019489;28;20215;-67
2022/12/22 09:04:10;;;;;;;46.87;36.00;;;;;;;3.11;55.67;95066.81;5029573;28;20470;-67
2022/12/22 09:06:36;;;;;;;52.43;37.90;;;;;;;3.02;56.02;95068.25;5039145;28;20245;-67
2022/12/22 09:09:05;;;;;;;47.10;37.90;;;;;;;3.10;55.43;95063.34;5017252;28;20233;-67
2022/12/22 09:11:31;;;;;;;45.60;36.27;;;;;;;3.11;55.57;95064.19;5026680;28;20275;-67
2022/12/22 09:13:59;;;;;;;57.23;37.00;;;;;;;2.94;56.47;95061.00;5042119;28;20213;-67
2022/12/22 09:16:27;;;;;;;48.27;36.20;;;;;;;2.98;56.81;95057.25;5032073;28;20224;-67
2022/12/22 09:18:53;;;;;;;52.73;37.47;;;;;;;3.03;56.83;95051.72;5023300;28;20218;-67
2022/12/22 09:21:18;;;;;;;51.20;36.80;;;;;;;3.29;55.36;95039.53;5030758;28;20229;-67
2022/12/22 09:23:44;;;;;;;47.53;36.27;;;;;;;3.13;56.41;95038.91;5046348;28;20178;-67
2022/12/22 09:26:12;;;;;;;47.77;37.10;;;;;;;3.22;56.14;95044.31;5042490;28;20221;-67
2022/12/22 09:28:38;;;;;;;50.23;37.53;;;;;;;3.36;55.50;95039.94;5045446;28;20238;-67
2022/12/22 09:31:04;;;;;;;47.70;38.73;;;;;;;3.59;54.91;95040.94;5039057;28;20345;-67
2022/12/22 09:33:30;;;;;;;54.70;38.23;;;;;;;3.34;55.88;95037.44;5021437;28;20218;-67
2022/12/22 09:35:56;;;;;;;47.23;38.40;;;;;;;3.45;55.39;95044.50;5037075;28;20232;-67
2022/12/22 09:38:25;;;;;;;48.67;38.17;;;;;;;3.69;54.26;95039.34;5049520;28;20199;-67
2022/12/22 09:40:51;;;;;;;50.90;36.63;;;;;;;3.53;55.04;95032.63;5043136;28;20214;-67
2022/12/22 09:43:19;;;;;;;46.97;36.27;;;;;;;3.65;55.42;95030.09;5048476;28;20210;-67
2022/12/22 09:45:45;;;;;;;50.63;36.47;;;;;;;3.79;54.66;95031.69;5062468;28;20225;-67
2022/12/22 09:48:12;;;;;;;45.80;33.97;;;;;;;4.00;53.80;95035.34;5050521;28;20394;-67
2022/12/22 09:50:40;;;;;;;49.93;35.10;;;;;;;3.78;54.40;95036.06;5050139;28;20197;-67
2022/12/22 09:53:17;;;;;;;44.47;37.00;;;;;;;3.85;53.77;95032.09;5043728;28;20254;-67
2022/12/22 09:55:46;;;;;;;48.73;36.57;;;;;;;4.00;53.27;95030.13;5042050;28;20263;-67
2022/12/22 09:58:26;;;;;;;48.23;36.53;;;;;;;4.16;52.84;95025.47;5049488;28;20221;-67
2022/12/22 10:01:11;;;;;;;48.53;34.20;;;;;;;4.09;52.19;95021.69;5056073;28;20222;-67
2022/12/22 10:03:49;;;;;;;48.53;36.27;;;;;;;4.16;52.41;95020.25;5048956;28;20218;-67
2022/12/22 10:06:27;;;;;;;49.30;34.83;;;;;;;4.33;52.07;95012.97;5050987;28;20217;-67
2022/12/22 10:08:53;;;;;;;46.50;32.77;;;;;;;4.41;51.91;95008.03;5049206;28;20205;-67
2022/12/22 10:11:19;;;;;;;41.60;32.67;;;;;;;4.62;50.63;94997.78;5052782;28;20190;-67
2022/12/22 10:13:44;;;;;;;44.57;31.67;;;;;;;4.45;51.40;94982.63;5049734;28;20225;-67
2022/12/22 10:16:36;;;;;;;45.17;31.80;;;;;;;4.58;51.14;94978.13;5046270;28;20309;-67
2022/12/22 10:19:08;;;;;;;40.77;32.00;;;;;;;4.61;51.30;94978.72;5041784;28;20226;-67
2022/12/22 10:21:34;;;;;;;43.50;31.50;;;;;;;4.92;50.79;94973.78;5046872;28;20226;-67
2022/12/22 10:23:59;;;;;;;45.63;32.30;;;;;;;4.91;50.44;94966.09;5035118;28;20196;-67
2022/12/22 10:26:30;;;;;;;44.07;30.73;;;;;;;4.88;50.87;94964.53;5046295;28;20204;-67
2022/12/22 10:29:06;;;;;;;42.03;29.90;;;;;;;5.05;49.89;94971.03;5037942;28;20226;-67
2022/12/22 10:31:34;;;;;;;37.67;30.70;;;;;;;5.18;49.63;94963.09;5045789;28;20234;-67
2022/12/22 10:34:16;;;;;;;42.13;29.57;;;;;;;5.06;49.46;94967.50;5042296;28;20222;-67
2022/12/22 10:36:51;;;;;;;41.93;31.23;;;;;;;4.95;49.65;94960.53;5041869;28;20370;-67
2022/12/22 10:39:37;;;;;;;44.17;29.97;;;;;;;5.08;49.17;94955.19;5040832;28;20218;-67
2022/12/22 10:42:13;;;;;;;42.33;30.70;;;;;;;5.19;49.17;94951.75;5041259;28;20277;-67
2022/12/22 10:44:44;;;;;;;42.50;29.67;;;;;;;5.40;48.49;94950.03;5051547;28;20255;-67
2022/12/22 10:47:22;;;;;;;41.00;29.87;;;;;;;5.33;48.97;94943.66;5036056;28;20214;-67
2022/12/22 10:49:56;;;;;;;38.67;30.23;;;;;;;5.60;48.84;94930.19;5036411;28;20224;-67
2022/12/22 10:52:28;;;;;;;42.40;30.40;;;;;;;5.88;47.66;94936.63;5056995;28;20312;-67
2022/12/22 10:55:17;;;;;;;41.67;29.57;;;;;;;5.93;47.26;94934.50;5033652;28;20272;-67
2022/12/22 10:57:43;;;;;;;43.37;29.93;;;;;;;6.16;46.83;94934.38;5033663;28;20264;-67
2022/12/22 11:00:27;;;;;;;46.53;30.10;;;;;;;6.30;46.15;94933.22;5041275;28;20269;-67
2022/12/22 11:02:58;;;;;;;43.07;30.50;;;;;;;6.44;46.01;94927.66;5019484;28;20210;-67
2022/12/22 11:05:24;;;;;;;43.13;31.03;;;;;;;6.35;46.33;94923.22;5046098;28;20185;-67
2022/12/22 11:07:50;;;;;;;47.57;32.33;;;;;;;6.39;46.60;94924.63;5044204;28;20329;-67
2022/12/22 11:10:29;;;;;;;46.57;32.23;;;;;;;6.44;45.88;94919.81;5035066;28;20217;-67
2022/12/22 11:13:02;;;;;;;41.93;31.80;;;;;;;6.55;45.82;94917.16;5043806;28;20248;-66
2022/12/22 11:15:33;;;;;;;48.33;31.37;;;;;;;6.69;45.71;94923.00;5056337;28;20215;-67
2022/12/22 11:18:19;;;;;;;37.93;31.70;;;;;;;6.48;45.83;94900.34;5025201;28;20226;-67
2022/12/22 11:21:19;;;;;;;48.60;31.77;;;;;;;7.00;45.04;94911.59;5027999;28;20180;-67
2022/12/22 11:24:15;;;;;;;50.93;33.00;;;;;;;7.56;44.29;94899.69;5031128;28;20325;-66
2022/12/22 11:27:06;;;;;;;49.87;34.13;;;;;;;8.17;42.56;94901.22;5022196;28;20225;-66
2022/12/22 11:29:34;;;;;;;42.37;33.03;;;;;;;8.31;41.96;94895.56;5019680;28;20222;-66
2022/12/22 11:32:03;;;;;;;43.77;32.10;;;;;;;8.23;41.22;94894.59;5016635;28;20313;-67
2022/12/22 11:34:34;;;;;;;45.77;33.00;;;;;;;8.16;42.10;94900.41;5023692;28;20222;-67
2022/12/22 11:37:28;;;;;;;45.10;32.87;;;;;;;8.25;42.03;94893.50;5024398;28;20227;-67
2022/12/22 11:40:18;;;;;;;49.40;32.63;;;;;;;8.28;42.10;94892.38;4992352;28;20230;-67
2022/12/22 11:43:39;;;;;;;46.07;32.60;;;;;;;8.26;42.26;94895.16;4990653;28;20262;-67
2022/12/22 11:46:13;;;;;;;46.27;33.57;;;;;;;8.29;42.29;94876.53;4932780;29;20240;-67
2022/12/22 11:49:17;;;;;;;42.23;32.93;;;;;;;8.63;41.08;94881.28;4932943;29;20237;-67
2022/12/22 11:52:33;;;;;;;44.90;32.03;;;;;;;7.94;42.32;94891.06;4858479;29;20359;-67
2022/12/22 11:55:17;;;;;;;40.70;31.27;;;;;;;7.82;42.50;94881.69;4838469;29;20289;-67
2022/12/22 11:57:58;;;;;;;45.20;32.47;;;;;;;7.70;43.20;94885.41;4835956;29;20392;-67
2022/12/22 12:00:23;;;;;;;40.67;32.23;;;;;;;7.94;42.84;94875.34;4834078;29;20229;-67
2022/12/22 12:03:04;;;;;;;46.20;32.30;;;;;;;8.00;42.09;94873.13;4835712;29;20240;-67
2022/12/22 12:05:50;;;;;;;43.77;32.90;;;;;;;8.13;42.18;94876.28;4802825;29;20265;-67
2022/12/22 12:08:34;;;;;;;45.77;34.47;;;;;;;8.36;41.81;94863.69;4835267;29;20229;-67
2022/12/22 12:11:17;;;;;;;41.83;32.07;;;;;;;8.51;40.83;94862.28;4835912;29;20233;-66
2022/12/22 12:14:01;;;;;;;44.83;32.93;;;;;;;8.79;40.34;94865.78;4838879;29;20324;-67
2022/12/22 12:16:37;;;;;;;48.00;34.17;;;;;;;8.99;40.26;94863.06;4845962;29;20223;-67
2022/12/22 12:19:53;;;;;;;43.80;33.23;;;;;;;9.50;38.80;94851.16;4880386;29;20257;-67
2022/12/22 12:22:37;;;;;;;44.13;34.90;;;;;;;9.10;39.14;94843.69;4871821;29;20267;-67
2022/12/22 12:25:12;;;;;;;44.20;32.53;;;;;;;9.13;38.83;94856.50;4895355;28;20223;-67
2022/12/22 12:28:04;;;;;;;44.90;33.30;;;;;;;8.97;39.19;94851.91;4957166;28;20279;-67
2022/12/22 12:33:43;;;;;;;42.60;32.07;;;;;;;9.47;38.24;94849.66;4969319;28;20250;-67
2022/12/22 12:36:23;;;;;;;41.10;32.73;;;;;;;9.68;37.87;94846.75;4972184;28;20207;-67
2022/12/22 12:39:09;;;;;;;44.00;33.73;;;;;;;10.45;36.60;94847.03;4967755;28;20249;-67
2022/12/22 12:41:47;;;;;;;41.53;33.97;;;;;;;10.64;36.68;94848.63;4969813;28;20306;-67
2022/12/22 12:44:16;;;;;;;43.90;34.27;;;;;;;10.48;36.33;94844.09;4984481;28;20314;-67
2022/12/22 12:46:53;;;;;;;42.87;33.90;;;;;;;10.20;36.86;94834.69;4962419;28;20227;-67
2022/12/22 12:49:33;;;;;;;52.43;35.97;;;;;;;10.13;37.49;94830.03;4972163;28;20223;-67
2022/12/22 12:52:05;;;;;;;49.70;36.77;;;;;;;10.20;37.37;94830.25;4963248;28;20243;-67
2022/12/22 12:54:30;;;;;;;47.27;35.53;;;;;;;10.20;37.59;94826.78;4968323;28;20479;-67
2022/12/22 12:57:00;;;;;;;39.30;33.93;;;;;;;10.24;37.15;94836.03;5003173;28;20201;-67
2022/12/22 12:59:41;;;;;;;43.67;35.23;;;;;;;10.12;38.02;94831.00;4989972;28;20195;-67
2022/12/22 13:02:34;;;;;;;47.60;34.10;;;;;;;10.35;37.42;94830.53;4999311;28;20319;-67
2022/12/22 13:05:12;;;;;;;47.17;34.63;;;;;;;10.34;37.64;94828.88;4976178;28;20231;-67
2022/12/22 13:08:06;;;;;;;42.33;32.57;;;;;;;10.52;37.41;94829.66;4998298;28;20218;-67
2022/12/22 13:10:35;;;;;;;43.40;32.63;;;;;;;10.42;37.66;94823.66;4994408;28;20239;-67
2022/12/22 13:13:01;;;;;;;49.07;34.10;;;;;;;10.46;37.73;94825.03;4982820;28;20224;-67
2022/12/22 13:15:29;;;;;;;48.97;35.70;;;;;;;10.43;37.79;94827.16;4985814;28;20260;-67
2022/12/22 13:17:55;;;;;;;42.73;33.30;;;;;;;10.46;37.73;94827.66;5003431;28;20249;-67
2022/12/22 13:20:25;;;;;;;42.57;34.27;;;;;;;10.48;37.59;94830.94;4988107;28;20210;-67
2022/12/22 13:22:54;;;;;;;43.57;33.90;;;;;;;10.41;37.90;94827.28;5000973;28;20259;-67
2022/12/22 13:25:21;;;;;;;45.03;34.77;;;;;;;10.33;38.28;94821.97;4987227;28;20231;-67
2022/12/22 13:27:47;;;;;;;47.30;36.67;;;;;;;10.27;38.21;94827.84;4989906;28;20222;-65
2022/12/22 13:30:16;;;;;;;46.43;34.67;;;;;;;10.25;38.51;94824.53;4989936;28;20235;-65
2022/12/22 13:32:45;;;;;;;53.67;39.10;;;;;;;10.13;38.84;94824.78;5022636;28;20231;-65
2022/12/22 13:35:33;;;;;;;57.93;41.00;;;;;;;10.09;38.99;94827.88;5024019;28;20222;-65
2022/12/22 13:37:59;;;;;;;51.97;40.03;;;;;;;10.03;39.48;94824.06;5037553;28;20222;-66
2022/12/22 13:40:29;;;;;;;48.37;38.53;;;;;;;9.90;39.57;94819.19;5028069;28;20218;-65
2022/12/22 13:43:01;;;;;;;55.87;37.83;;;;;;;9.80;39.77;94826.31;5023907;28;20231;-65
2022/12/22 13:45:47;;;;;;;47.77;36.00;;;;;;;9.71;39.92;94820.19;5042196;28;20742;-65
2022/12/22 13:48:40;;;;;;;46.57;34.43;;;;;;;9.62;40.10;94823.72;5050253;28;20194;-65
2022/12/22 13:51:11;;;;;;;45.53;34.97;;;;;;;9.61;40.33;94816.81;5051521;28;20197;-65
2022/12/22 13:53:42;;;;;;;47.23;34.40;;;;;;;9.38;40.84;94816.47;5060591;28;20241;-65
2022/12/22 13:56:13;;;;;;;49.33;35.00;;;;;;;9.36;40.80;94815.78;5045059;28;20257;-65
2022/12/22 13:58:44;;;;;;;52.13;34.83;;;;;;;8.79;41.82;94813.38;5039812;28;20229;-65
2022/12/22 14:01:09;;;;;;;52.60;35.83;;;;;;;8.87;41.87;94814.41;5032795;28;20226;-65
2022/12/22 14:03:35;;;;;;;49.33;35.97;;;;;;;8.91;41.98;94813.16;5024869;28;20285;-65
2022/12/22 14:06:01;;;;;;;50.20;36.07;;;;;;;8.92;41.81;94813.00;5038674;28;20195;-65
2022/12/22 14:08:26;;;;;;;53.83;35.97;;;;;;;8.73;42.49;94815.72;5031294;28;20201;-65
2022/12/22 14:10:53;;;;;;;51.90;35.57;;;;;;;8.77;42.40;94814.47;5041693;28;20222;-65
2022/12/22 14:13:24;;;;;;;51.60;36.27;;;;;;;8.75;42.58;94811.16;5022699;28;20354;-65
2022/12/22 14:16:00;;;;;;;45.97;33.30;;;;;;;8.68;42.63;94812.72;5025325;28;20235;-65
2022/12/22 14:18:26;;;;;;;47.10;33.93;;;;;;;8.64;42.77;94803.50;5029845;28;20252;-65
2022/12/22 14:20:52;;;;;;;53.90;33.50;;;;;;;8.51;42.98;94806.44;5046939;28;20363;-65
2022/12/22 14:23:25;;;;;;;46.60;33.43;;;;;;;8.47;43.05;94805.06;5045961;28;20282;-65
2022/12/22 14:25:54;;;;;;;49.60;33.70;;;;;;;8.43;43.40;94811.59;5022817;28;20221;-65
2022/12/22 14:28:49;;;;;;;50.10;33.00;;;;;;;8.33;43.64;94807.16;5023286;28;20226;-65
2022/12/22 14:31:16;;;;;;;51.60;36.20;;;;;;;8.24;44.08;94810.66;5045956;28;20252;-65
2022/12/22 14:33:53;;;;;;;51.20;35.40;;;;;;;8.14;44.15;94807.22;5052397;28;20225;-65
2022/12/22 14:36:24;;;;;;;53.60;35.00;;;;;;;8.11;44.37;94813.56;5061658;28;20229;-64
2022/12/22 14:38:56;;;;;;;64.80;36.70;;;;;;;8.07;44.82;94806.97;5051342;28;20208;-65
2022/12/22 14:41:40;;;;;;;53.67;35.77;;;;;;;7.97;45.06;94803.56;5053438;28;20225;-64
2022/12/22 14:44:31;;;;;;;61.57;37.90;;;;;;;7.85;45.60;94810.72;5045667;28;20225;-65
2022/12/22 14:47:10;;;;;;;63.73;43.67;;;;;;;7.75;45.74;94807.28;5050149;28;20282;-65
2022/12/22 14:49:42;;;;;;;65.73;43.50;;;;;;;7.66;46.10;94815.97;5064001;28;20224;-64
2022/12/22 14:52:18;;;;;;;69.73;42.40;;;;;;;7.61;46.14;94813.78;5052357;28;20237;-65
2022/12/22 14:54:49;;;;;;;67.27;39.17;;;;;;;7.56;46.44;94818.59;5055024;28;20231;-65
2022/12/22 14:57:24;;;;;;;71.37;39.90;;;;;;;7.47;46.80;94816.81;5071043;28;20220;-65
2022/12/22 15:00:04;;;;;;;65.27;39.90;;;;;;;7.40;46.95;94813.09;5054475;28;20199;-65
2022/12/22 15:02:35;;;;;;;60.13;39.63;;;;;;;7.34;47.14;94824.94;5064913;28;20233;-65
2022/12/22 15:05:14;;;;;;;61.63;40.17;;;;;;;7.20;47.71;94820.94;5052368;28;20286;-65
2022/12/22 15:07:49;;;;;;;61.77;39.03;;;;;;;7.11;47.67;94820.91;5043990;28;20225;-65
2022/12/22 15:10:15;;;;;;;57.00;38.90;;;;;;;7.02;47.84;94818.13;5045801;28;20221;-65
2022/12/22 15:12:41;;;;;;;67.13;40.53;;;;;;;6.97;47.96;94822.13;5037476;28;20226;-65
2022/12/22 15:15:18;;;;;;;66.33;41.63;;;;;;;6.92;48.48;94824.31;5023548;28;20197;-65
2022/12/22 15:17:47;;;;;;;62.43;40.53;;;;;;;6.86;48.63;94825.66;5047926;28;20216;-65